Northwest, Indiana
Current Conditions -  °F | °C
As of 9:55 AM on Wednesday 22 Oct 2014 (Local Time) from KDCY Reporting Station
Clear Clear  
Wind Chill:   Ceiling: Unl
Heat Index:   Visibility: 10mi
Dew Point:   Wind: 8mph
Humidity: 85%   Direction: 80°E
Pressure: 30.32"   Gusts: NA
Location:  38.6165°N, 86.6265°W
Report Text: KDCY 221355Z AUTO 08007KT 10SM CLR 07/05 A3032 RMK AO2 T00730050
Loading
Personal Weather Stations






























Interactive Weather Map
Tropical Storm Tracking
New forecast layout! Learn more

10-Day Weather Forecast

Advertisements
Track Severe Weather on mobile